Observations for HUMBERSIDE, United Kingdom (EGNJ)

EGNJ 201650Z 28012KT 9999 SCT028 BKN043 20/11 Q1017 
EGNJ 201620Z 28013KT 9999 SCT028 BKN043 21/12 Q1017 
EGNJ 201550Z 27011KT 9999 FEW030 SCT035 21/13 Q1017 
EGNJ 201520Z 28015KT 9999 FEW029 SCT034 21/13 Q1017 
EGNJ 201450Z 27014KT 9999 FEW024 SCT037 21/14 Q1016 
EGNJ 201420Z 28017KT 9999 FEW024 SCT037 21/14 Q1016 
EGNJ 201350Z 28019KT 9999 FEW035 SCT045 21/14 Q1016 
EGNJ 201320Z 26015KT 9999 FEW035 SCT045 22/14 Q1015 
EGNJ 201250Z 25019KT 9999 FEW035 SCT045 22/13 Q1015 
EGNJ 201220Z 24021KT 9999 FEW015 SCT030 BKN045 23/14 Q1015  
EGNJ 201150Z 24019KT 9999 FEW015 SCT029 BKN044 22/14 Q1015  
EGNJ 201120Z 24017KT 9999 -RA SCT026 BKN031 22/15 Q1015 
EGNJ 201050Z 23017KT 9999 SCT024 BKN030 22/15 Q1015 
EGNJ 201020Z 23017KT 9999 SCT024 BKN030 20/16 Q1015 
EGNJ 200950Z 23019KT 9999 SCT027 BKN032 21/15 Q1015 
EGNJ 200920Z 23019G29KT 9999 SCT024 BKN027 21/15 Q1015  
EGNJ 200850Z 22016KT 9999 SCT023 BKN028 21/16 Q1015 
EGNJ 200820Z 23019KT 9999 SCT021 BKN028 21/15 Q1015 
EGNJ 200750Z 22021KT 9999 FEW016 SCT025 20/15 Q1015 
EGNJ 200720Z 21017KT 9999 SCT016 BKN021 19/15 Q1015 
EGNJ 200650Z 21017KT 9999 SCT017 BKN022 19/15 Q1015 
EGNJ 200620Z 21019KT 9999 FEW016 SCT024 19/15 Q1015 
EGNJ 200550Z 21016KT 9999 FEW015 SCT022 19/15 Q1015 
EGNJ 200520Z 21017KT 9999 FEW015 BKN022 18/14 Q1016 
EGNJ 200450Z 20015KT 9999 FEW015 18/14 Q1015
EGNJ 200420Z AUTO 21012KT 9999 // NCD 18/14 Q1016   
EGNJ 200350Z AUTO 21014KT 9999 BKN024/// 17/14 Q1016
EGNJ 200320Z AUTO 21012KT 9999 BKN024/// 17/14 Q1016
EGNJ 200250Z AUTO 21010KT 9999 SCT023/// 17/14 Q1016
EGNJ 200220Z AUTO 22012KT 9999 NCD 18/14 Q1017  
EGNJ 200150Z AUTO 22013KT 9999 FEW024/// 18/14 Q1017
EGNJ 200120Z AUTO 21012KT 9999 FEW024/// 18/15 Q1017
EGNJ 200050Z AUTO 20011KT 9999 SCT025/// 17/15 Q1017
EGNJ 200020Z AUTO 20011KT 9999 BKN028/// 18/15 Q1017
EGNJ 192350Z AUTO 20011KT 9999 SCT025/// 18/15 Q1018
EGNJ 192320Z AUTO 21012KT 9999 BKN028/// OVC033/// 20/15 Q1018  
EGNJ 192250Z AUTO 21013KT 9999 OVC031/// 20/16 Q1018
EGNJ 192220Z 22013KT 9999 FEW030 SCT045 20/16 Q1018 
EGNJ 192150Z 21015KT 9999 FEW030 SCT045 20/16 Q1018 
EGNJ 192120Z 21011KT 9999 FEW030 SCT045 21/16 Q1018 
EGNJ 192050Z 22011KT 9999 FEW027 SCT046 21/16 Q1018 
EGNJ 192020Z 21009KT 9999 FEW027 SCT046 21/16 Q1018 
EGNJ 191950Z 22010KT 9999 FEW027 SCT046 21/16 Q1018 
EGNJ 191920Z 22011KT 9999 FEW027 SCT046 22/16 Q1018 
EGNJ 191850Z 22012KT 9999 FEW029 BKN046 22/16 Q1018 
EGNJ 191820Z 22013KT 9999 FEW029 BKN046 22/16 Q1018 
EGNJ 191750Z 23013KT 9999 SCT031 BKN046 23/16 Q1018 
EGNJ 191720Z 23014KT 9999 SCT031 BKN046 23/16 Q1019 
EGNJ 191650Z 23014KT 9999 SCT026 BKN032 22/16 Q1019 
EGNJ 191620Z 21011KT 9999 SCT026 BKN032 22/16 Q1019